Syoueimaru — JL6084 — position and weather

sailwx.info

Track history (hours):
 
Tides and Currents Weather Stations Pressure Air Temp Water Temp Dewpoint Dewpoint Depression Visibility Wind Speed Wind Dir Waves Ship Positions

Syoueimaru

Last reported at 2017-Feb-23 10:33 UTC. Time now 2017-Feb-25 02:33 UTC.
Position N 34°59' E 139°44'.

Length 79 m; draft 4.1 m.

Type: Other ship. MMSI: 431500094.

Date/timePositionNaut miles runAvg speedWind from/ knotsBaromVisibWave heightAir tempDewpointWater temp
2017-Feb-23 10:33N 34°59' E 139°44'9 8.8
2017-Feb-23 09:33N 35°08' E 139°46'9 9.2
2017-Feb-23 08:33N 35°17' E 139°45'10 9.9
2017-Feb-23 07:33N 35°26' E 139°43'3 2.8
2017-Feb-23 06:33N 35°29' E 139°43'0 0.0
2017-Feb-23 05:33N 35°29' E 139°43'0 0.0
2017-Feb-23 04:33N 35°29' E 139°43'0 0.1
2017-Feb-23 03:34N 35°29' E 139°43'4 4.3
2017-Feb-23 02:33N 35°30' E 139°48'12 8.5
2017-Feb-23 01:06N 35°39' E 139°59'  
2017-Feb-17 05:08N 35°40' E 139°59'6 9.5
2017-Feb-17 04:33N 35°35' E 139°57'1010.1
2017-Feb-17 03:33N 35°27' E 139°50'9 9.5
2017-Feb-17 02:33N 35°19' E 139°44'9 9.3
2017-Feb-17 01:33N 35°09' E 139°47'  
Track history (hours):
 
Tides and Currents Weather Stations Pressure Air Temp Water Temp Dewpoint Dewpoint Depression Visibility Wind Speed Wind Dir Waves Ship Positions

Syoueimaru

Last reported at 2017-Feb-23 10:33 UTC. Time now 2017-Feb-25 02:33 UTC.
Position N 34°59' E 139°44'.

Length 79 m; draft 4.1 m.

Type: Other ship. MMSI: 431500094.

Date/timePositionNaut miles runAvg speedWind from/ knotsBaromVisibWave heightAir tempDewpointWater temp
2017-Feb-23 10:33N 34°59' E 139°44'9 8.8
2017-Feb-23 09:33N 35°08' E 139°46'9 9.2
2017-Feb-23 08:33N 35°17' E 139°45'10 9.9
2017-Feb-23 07:33N 35°26' E 139°43'3 2.8
2017-Feb-23 06:33N 35°29' E 139°43'0 0.0
2017-Feb-23 05:33N 35°29' E 139°43'0 0.0
2017-Feb-23 04:33N 35°29' E 139°43'0 0.1
2017-Feb-23 03:34N 35°29' E 139°43'4 4.3
2017-Feb-23 02:33N 35°30' E 139°48'12 8.5
2017-Feb-23 01:06N 35°39' E 139°59'  
2017-Feb-17 05:08N 35°40' E 139°59'6 9.5
2017-Feb-17 04:33N 35°35' E 139°57'1010.1
2017-Feb-17 03:33N 35°27' E 139°50'9 9.5
2017-Feb-17 02:33N 35°19' E 139°44'9 9.3
2017-Feb-17 01:33N 35°09' E 139°47'  

Dump ship's entire track history